EW9671 Weather Reports


time (UTC)temp
C
wind
direction
speed
KPH
gust
KPH
rain 1hr
cm
rain 24hr
cm
rain mn
cm
humidity
%
barometer
mb
20200229092815 15 0 6.4 8.0 0.00 0.00 0.00 45 1012.2
20200229091816 14 0 6.4 6.4 0.00 0.00 0.00 45 1012.2
20200229090815 14 0 4.8 6.4 0.00 0.00 0.00 47 1012.4
20200229085815 13 0 6.4 6.4 0.00 0.00 0.00 53 1012.7
20200229084815 13 0 6.4 6.4 0.00 0.00 0.00 57 1012.9
20200229083817 13 0 4.8 6.4 0.00 0.00 0.00 55 1013.0
20200229082815 15 0 3.2 3.2 0.00 0.00 0.00 54 1013.3
20200229081815 15 0.0 0.0 0.00 0.00 0.00 52 1013.5
20200229080816 15 0.0 0.0 0.00 0.00 0.00 53 1013.8
20200229075816 16 0.0 1.6 0.00 0.00 0.00 55 1013.9
20200229074815 16 0 3.2 3.2 0.00 0.00 0.00 48 1013.9
20200229073815 15 0 3.2 4.8 0.00 0.00 0.00 49 1014.2
20200229072815 15 0 4.8 4.8 0.00 0.00 0.00 50 1014.1
20200229071815 15 0 4.8 4.8 0.00 0.00 0.00 47 1014.2
20200229070815 15 0 4.8 6.4 0.00 0.00 0.00 46 1014.2
20200229065816 15 0 4.8 6.4 0.00 0.00 0.00 52 1014.4
20200229064817 16 0 3.2 4.8 0.00 0.00 0.00 53 1014.7
20200229063816 16 0.0 0.0 0.00 0.00 0.00 52 1014.4
20200229062816 16 0.0 0.0 0.00 0.00 0.00 50 1014.3
20200229061816 16 0 1.6 3.2 0.00 0.00 0.00 50 1014.3
20200229060816 16 0 3.2 3.2 0.00 0.00 0.00 51 1014.1
20200229055816 16 0 4.8 4.8 0.00 0.00 0.00 49 1014.3
20200229054816 16 0 4.8 4.8 0.00 0.00 0.00 50 1014.5
20200229053816 16 0 3.2 3.2 0.00 0.00 0.00 47 1014.5
20200229052816 16 0 4.8 6.4 0.00 0.00 0.00 46 1014.5
20200229051816 16 0 3.2 4.8 0.00 0.00 0.00 50 1014.7
20200229050816 16 0 4.8 6.4 0.00 0.00 0.00 51 1014.6
20200229045817 17 0.0 1.6 0.00 0.00 0.00 47 1014.5
20200229044816 18 0 1.6 3.2 0.00 0.00 0.00 45 1014.4
20200229043817 17 0 4.8 4.8 0.00 0.00 0.00 44 1014.5
20200229042823 18 0 6.4 6.4 0.00 0.00 0.00 44 1014.3
20200229041816 18 0 6.4 6.4 0.00 0.00 0.00 44 1014.3
20200229040820 18 0 3.2 4.8 0.00 0.00 0.00 45 1014.6
20200229035816 19 0 3.2 3.2 0.00 0.00 0.00 45 1014.5
20200229034816 20 0.0 0.0 0.00 0.00 0.00 39 1015.0
20200229033817 20 0 3.2 3.2 0.00 0.00 0.00 38 1015.0
20200229032816 19 0 8.0 8.0 0.00 0.00 0.00 42 1014.9
20200229031831 19 0 4.8 6.4 0.00 0.00 0.00 44 1014.6
20200229030816 19 0 1.6 1.6 0.00 0.00 0.00 41 1013.8
20200229025818 18 0 3.2 3.2 0.00 0.00 0.00 47 1013.4
20200229024816 19 0 3.2 3.2 0.00 0.00 0.00 47 1013.1
20200229023819 20 0 3.2 4.8 0.00 0.00 0.00 45 1013.4
20200229022816 20 0.0 0.0 0.00 0.00 0.00 44 1013.6
20200229021816 20 0.0 0.0 0.00 0.00 0.00 43 1013.4
20200229020817 20 0 1.6 3.2 0.00 0.00 0.00 44 1013.3
20200229015816 21 0 4.8 6.4 0.00 0.00 0.00 43 1013.4
20200229014817 21 0 3.2 3.2 0.00 0.00 0.00 43 1013.5
20200229013815 21 0 1.6 3.2 0.00 0.00 0.00 45 1013.6
20200229012816 22 0 3.2 3.2 0.00 0.00 0.00 43 1013.8
20200229011816 22 0 3.2 3.2 0.00 0.00 0.00 40 1013.8
20200229010816 23 0 4.8 4.8 0.00 0.00 0.00 39 1013.9
20200229005815 23 0 4.8 6.4 0.00 0.00 0.00 37 1013.8
20200229004815 23 0 4.8 8.0 0.00 0.00 0.00 35 1013.8
20200229003815 24 0 8.0 9.7 0.00 0.00 0.00 30 1013.6
20200229002816 25 0 6.4 8.0 0.00 0.00 0.00 30 1013.8
20200229001816 25 0 4.8 6.4 0.00 0.00 0.00 28 1013.7
20200229000815 25 0 4.8 6.4 0.00 0.00 0.00 27 1013.6
20200228235816 25 0 3.2 4.8 0.00 0.00 0.00 27 1013.7
20200228234816 26 0 4.8 6.4 0.00 0.00 0.00 26 1013.6
20200228233815 26 0 4.8 6.4 0.00 0.00 0.00 24 1013.6
20200228232838 27 0 6.4 8.0 0.00 0.00 0.00 21 1013.5
20200228231815 26 0 6.4 9.7 0.00 0.00 0.00 22 1013.5
20200228230815 26 0 8.0 9.7 0.00 0.00 0.00 25 1013.5
20200228225815 26 0 12.9 16.1 0.00 0.00 0.00 24 1013.6
20200228224815 26 0 11.3 14.5 0.00 0.00 0.00 23 1013.9
20200228223817 27 0 14.5 19.3 0.00 0.00 0.00 23 1013.9
20200228222817 27 0 16.1 20.9 0.00 0.00 0.00 20 1013.7
20200228221817 27 0 16.1 22.5 0.00 0.00 0.00 19 1013.8
20200228220817 28 0 19.3 22.5 0.00 0.00 0.00 18 1013.8
20200228215902 28 0 17.7 20.9 0.00 0.00 0.00 17 1013.8
20200228214821 28 0 22.5 25.7 0.00 0.00 0.00 17 1013.6
20200228213819 29 0 17.7 20.9 0.00 0.00 0.00 18 1013.6
20200228212817 30 0 20.9 32.2 0.00 0.00 0.00 19 1013.4
20200228211817 30 0 9.7 14.5 0.00 0.00 0.00 20 1013.3
20200228210817 30 0 14.5 19.3 0.00 0.00 0.00 21 1013.2
20200228205817 30 0 11.3 16.1 0.00 0.00 0.00 19 1013.1
20200228204817 30 0 11.3 20.9 0.00 0.00 0.00 20 1013.2
20200228203817 30 0 6.4 9.7 0.00 0.00 0.00 18 1013.5
20200228202817 30 0 16.1 19.3 0.00 0.00 0.00 16 1013.7
20200228201817 29 0 4.8 6.4 0.00 0.00 0.00 17 1013.8
20200228200817 29 0 6.4 8.0 0.00 0.00 0.00 17 1013.9
20200228195817 29 0 6.4 8.0 0.00 0.00 0.00 18 1013.9
20200228194822 28 0 3.2 4.8 0.00 0.00 0.00 17 1014.1
20200228193817 28 0 4.8 6.4 0.00 0.00 0.00 18 1014.3
20200228192817 28 0.0 1.6 0.00 0.00 0.00 17 1014.5
20200228191822 28 0 4.8 6.4 0.00 0.00 0.00 21 1014.8
20200228190817 27 0 3.2 4.8 0.00 0.00 0.00 22 1015.1
20200228185817 26 0 4.8 4.8 0.00 0.00 0.00 21 1015.4
20200228184817 26 0.0 1.6 0.00 0.00 0.00 21 1015.7
20200228183817 26 0 4.8 6.4 0.00 0.00 0.00 23 1015.9
20200228182816 25 0 1.6 3.2 0.00 0.00 0.00 22 1016.0
20200228181817 25 0 4.8 4.8 0.00 0.00 0.00 24 1015.9
20200228180817 24 0 4.8 6.4 0.00 0.00 0.00 23 1016.1
20200228175817 23 0 3.2 4.8 0.00 0.00 0.00 26 1016.3
20200228174817 23 0 4.8 8.0 0.00 0.00 0.00 28 1016.3
20200228173816 22 0 3.2 4.8 0.00 0.00 0.00 29 1016.3
20200228172817 22 0 3.2 4.8 0.00 0.00 0.00 30 1016.3
20200228171816 21 0 3.2 4.8 0.00 0.00 0.00 28 1016.4
20200228170816 21 0 3.2 6.4 0.00 0.00 0.00 31 1016.3
20200228165816 20 0 3.2 6.4 0.00 0.00 0.00 34 1016.3
20200228164816 20 0 1.6 3.2 0.00 0.00 0.00 37 1016.2
20200228163816 19 0 3.2 4.8 0.00 0.00 0.00 39 1016.0
20200228162816 19 0 1.6 3.2 0.00 0.00 0.00 42 1016.0
20200228161816 18 0 1.6 3.2 0.00 0.00 0.00 43 1015.9
20200228160816 18 0.0 1.6 0.00 0.00 0.00 45 1015.9
20200228155816 17 0 3.2 3.2 0.00 0.00 0.00 52 1015.9
20200228154816 16 0 4.8 4.8 0.00 0.00 0.00 57 1015.8
20200228153816 16 0 3.2 3.2 0.00 0.00 0.00 64 1016.0
20200228152816 15 0 1.6 3.2 0.00 0.00 0.00 66 1015.9
20200228151816 15 0 1.6 3.2 0.00 0.00 0.00 69 1015.9
20200228150816 15 0.0 0.0 0.00 0.00 0.00 72 1015.9
20200228145817 14 0.0 0.0 0.00 0.00 0.00 71 1015.8
20200228144816 13 0 4.8 6.4 0.00 0.00 0.00 75 1015.5
20200228143816 12 0 1.6 3.2 0.00 0.00 0.00 73 1015.2
20200228142817 12 0.0 0.0 0.00 0.00 0.00 72 1015.0
20200228141816 12 0 3.2 3.2 0.00 0.00 0.00 76 1014.7
20200228140816 11 0 3.2 3.2 0.00 0.00 0.00 79 1014.6
20200228135816 11 0 1.6 3.2 0.00 0.00 0.00 79 1014.2
20200228134816 11 0 1.6 1.6 0.00 0.00 0.00 79 1014.2
20200228133816 11 0 3.2 3.2 0.00 0.00 0.00 76 1014.1
20200228132816 11 0 1.6 1.6 0.00 0.00 0.00 77 1014.4
20200228131816 11 0 1.6 3.2 0.00 0.00 0.00 76 1014.4
20200228130816 11 0 1.6 1.6 0.00 0.00 0.00 81 1014.3
20200228125816 11 0 1.6 3.2 0.00 0.00 0.00 79 1014.1
20200228124816 11 0 4.8 4.8 0.00 0.00 0.00 77 1014.2
20200228123816 11 0 3.2 4.8 0.00 0.00 0.00 77 1014.3
20200228122818 11 0 1.6 3.2 0.00 0.00 0.00 79 1014.1
20200228121816 11 0 3.2 3.2 0.00 0.00 0.00 77 1014.1
20200228120816 11 0 4.8 4.8 0.00 0.00 0.00 74 1014.0
20200228115816 11 0.0 0.0 0.00 0.00 0.00 70 1013.9
20200228114816 11 0.0 0.0 0.00 0.00 0.00 70 1014.1
20200228113817 11 0.0 0.0 0.00 0.00 0.00 66 1014.0
20200228112816 11 0.0 0.0 0.00 0.00 0.00 66 1013.9
20200228111816 11 0.0 0.0 0.00 0.00 0.00 60 1013.6
20200228110817 11 0.0 0.0 0.00 0.00 0.00 61 1013.4
20200228105815 11 0 1.6 1.6 0.00 0.00 0.00 58 1013.5
20200228104816 11 0 3.2 3.2 0.00 0.00 0.00 56 1013.4
20200228103816 11 0 4.8 6.4 0.00 0.00 0.00 54 1013.3
20200228102816 11 0 1.6 1.6 0.00 0.00 0.00 55 1013.2
20200228101815 11 0.0 0.0 0.00 0.00 0.00 47 1013.1
20200228100815 11 0 3.2 4.8 0.00 0.00 0.00 44 1013.0
20200228095815 11 0 4.8 4.8 0.00 0.00 0.00 47 1013.0
20200228094815 12 0 3.2 4.8 0.00 0.00 0.00 52 1013.0
20200228093815 13 0 4.8 4.8 0.00 0.00 0.00 44 1013.1